Time;durP1;ratioP1;P1;durP2;ratioP2;P2;SDS_P1;SDS_P2;PMS_P1;PMS_P2;Temp;Humidity;BMP_temperature;BMP_pressure;BME280_temperature;BME280_humidity;BME280_pressure;Samples;Min_cycle;Max_cycle;Signal;HPM_P1;HPM_P2
2021/03/14 00:01:03;;;;;;;2.40;1.72;;;;;;;1.37;100.00;100163.91;1714132;84;21020;-78
2021/03/14 00:03:33;;;;;;;2.03;1.47;;;;;;;1.38;100.00;100158.09;1714073;84;21024;-77
2021/03/14 00:06:02;;;;;;;2.50;2.00;;;;;;;1.39;100.00;100156.64;1714270;83;21013;-78
2021/03/14 00:08:31;;;;;;;2.07;1.20;;;;;;;1.42;100.00;100156.92;1713901;84;21496;-78
2021/03/14 00:11:04;;;;;;;2.83;1.87;;;;;;;1.43;100.00;100147.95;1714011;84;20972;-78
2021/03/14 00:13:35;;;;;;;4.30;2.43;;;;;;;1.45;100.00;100148.23;1713849;84;21001;-79
2021/03/14 00:16:05;;;;;;;2.30;2.10;;;;;;;1.46;100.00;100144.59;1713933;84;20921;-77
2021/03/14 00:18:37;;;;;;;3.27;2.07;;;;;;;1.47;100.00;100140.97;1713888;83;21027;-79
2021/03/14 00:21:07;;;;;;;2.67;2.20;;;;;;;1.47;100.00;100145.43;1691133;84;21436;-78
2021/03/14 00:23:35;;;;;;;3.93;2.57;;;;;;;1.46;100.00;100145.08;1714048;84;21663;-78
2021/03/14 00:26:04;;;;;;;3.13;1.97;;;;;;;1.45;100.00;100148.23;1713859;84;20940;-79
2021/03/14 00:28:32;;;;;;;6.03;2.43;;;;;;;1.46;100.00;100143.74;1714131;83;21011;-78
2021/03/14 00:31:00;;;;;;;3.27;2.60;;;;;;;1.46;100.00;100143.25;1714017;83;20952;-77
2021/03/14 00:33:28;;;;;;;5.20;2.67;;;;;;;1.46;100.00;100135.75;1714051;83;21581;-78
2021/03/14 00:35:56;;;;;;;2.73;1.93;;;;;;;1.43;100.00;100136.80;1714176;83;20926;-78
2021/03/14 00:38:24;;;;;;;1.77;1.67;;;;;;;1.45;100.00;100134.91;1714212;83;20921;-77
2021/03/14 00:40:52;;;;;;;1.80;1.63;;;;;;;1.47;100.00;100136.10;1714100;83;20996;-77
2021/03/14 00:43:20;;;;;;;5.27;2.43;;;;;;;1.46;100.00;100141.92;1719632;83;20916;-78
2021/03/14 00:45:49;;;;;;;3.30;2.20;;;;;;;1.47;100.00;100137.44;1722723;83;21225;-79
2021/03/14 00:48:19;;;;;;;2.00;1.80;;;;;;;1.47;100.00;100146.30;1705922;81;21065;-77
2021/03/14 00:50:47;;;;;;;5.43;2.30;;;;;;;1.46;100.00;100143.25;1690578;81;20890;-79
2021/03/14 00:53:17;;;;;;;4.27;2.47;;;;;;;1.44;100.00;100142.52;1687251;82;20918;-78
2021/03/14 00:55:47;;;;;;;2.17;1.87;;;;;;;1.43;100.00;100147.46;1690808;85;20914;-78
2021/03/14 00:58:15;;;;;;;2.47;2.20;;;;;;;1.43;100.00;100142.13;1683124;83;21458;-78
2021/03/14 01:00:44;;;;;;;3.17;2.10;;;;;;;1.43;100.00;100150.13;1704979;84;20956;-79
2021/03/14 01:03:13;;;;;;;2.47;1.67;;;;;;;1.41;100.00;100141.89;1689576;85;20918;-79
2021/03/14 01:05:43;;;;;;;2.47;2.00;;;;;;;1.40;100.00;100143.70;1696903;84;20937;-78
2021/03/14 01:08:17;;;;;;;7.33;3.13;;;;;;;1.41;100.00;100143.22;1689557;84;20985;-79
2021/03/14 01:10:45;;;;;;;2.67;2.33;;;;;;;1.41;100.00;100149.88;1696990;84;21278;-78
2021/03/14 01:13:15;;;;;;;1.87;1.63;;;;;;;1.40;100.00;100149.04;1685655;85;21394;-77
2021/03/14 01:15:44;;;;;;;3.47;2.40;;;;;;;1.40;100.00;100146.38;1696982;84;20965;-79
2021/03/14 01:18:12;;;;;;;2.87;2.00;;;;;;;1.41;100.00;100154.72;1696865;84;20949;-78
2021/03/14 01:20:40;;;;;;;2.83;1.77;;;;;;;1.42;100.00;100152.93;1689481;85;21049;-78
2021/03/14 01:23:08;;;;;;;5.40;2.50;;;;;;;1.40;100.00;100157.03;1696925;84;21834;-78
2021/03/14 01:25:36;;;;;;;3.13;2.07;;;;;;;1.37;100.00;100155.91;1689483;85;20962;-78
2021/03/14 01:28:04;;;;;;;1.73;1.63;;;;;;;1.37;100.00;100163.06;1696993;84;20953;-78
2021/03/14 01:30:32;;;;;;;6.93;1.87;;;;;;;1.37;100.00;100163.91;1697048;84;21016;-78
2021/03/14 01:33:00;;;;;;;5.67;2.97;;;;;;;1.38;100.00;100168.28;1696946;84;21017;-78
2021/03/14 01:35:29;;;;;;;4.07;2.60;;;;;;;1.38;100.00;100169.61;1705677;83;21835;-78
2021/03/14 01:37:57;;;;;;;2.97;1.93;;;;;;;1.35;100.00;100168.49;1737120;82;20974;-78
2021/03/14 01:40:25;;;;;;;5.37;2.53;;;;;;;1.32;100.00;100167.37;1736955;82;20963;-78
2021/03/14 01:42:54;;;;;;;3.47;2.00;;;;;;;1.30;100.00;100167.47;1745807;81;20902;-78
2021/03/14 01:45:22;;;;;;;3.63;1.83;;;;;;;1.28;100.00;100176.06;1760869;81;21013;-78
2021/03/14 01:47:52;;;;;;;1.90;1.80;;;;;;;1.28;100.00;100168.56;1756983;81;20967;-78
2021/03/14 01:50:23;;;;;;;6.70;2.87;;;;;;;1.27;100.00;100169.02;1737220;82;21017;-78
2021/03/14 01:52:52;;;;;;;4.60;3.20;;;;;;;1.27;100.00;100177.01;1737448;82;21041;-79
2021/03/14 01:55:22;;;;;;;3.93;1.83;;;;;;;1.27;100.00;100174.83;1737265;82;21037;-78
2021/03/14 01:57:52;;;;;;;3.97;2.40;;;;;;;1.26;100.00;100171.81;1734529;82;21001;-80
2021/03/14 02:00:24;;;;;;;3.37;2.67;;;;;;;1.26;100.00;100180.65;1737363;82;21139;-79
2021/03/14 02:02:53;;;;;;;3.50;2.08;;;;;;;1.26;100.00;100175.81;1737466;82;20964;-79
2021/03/14 02:05:22;;;;;;;2.60;2.27;;;;;;;1.25;100.00;100170.94;1737291;82;21024;-78
2021/03/14 02:07:52;;;;;;;1.77;1.53;;;;;;;1.24;100.00;100170.59;1737394;82;20977;-77
2021/03/14 02:10:26;;;;;;;5.33;3.07;;;;;;;1.25;100.00;100176.76;1737282;82;20998;-78
2021/03/14 02:13:14;;;;;;;3.00;2.60;;;;;;;1.26;100.00;100177.14;1737318;82;21359;-78
2021/03/14 02:15:48;;;;;;;5.00;2.10;;;;;;;1.27;100.00;100180.16;1720865;82;21001;-79
2021/03/14 02:18:25;;;;;;;3.20;2.67;;;;;;;1.30;100.00;100175.95;1894002;76;26641;-78
2021/03/14 02:20:53;;;;;;;3.33;2.73;;;;;;;1.26;100.00;100181.98;1864929;77;20915;-79
2021/03/14 02:24:03;;;;;;;3.97;2.50;;;;;;;1.25;100.00;100184.27;1864842;77;21189;-78
2021/03/14 02:26:47;;;;;;;1.40;1.30;;;;;;;1.22;100.00;100183.63;1864918;77;20974;-78
2021/03/14 02:29:17;;;;;;;2.97;2.30;;;;;;;1.20;100.00;100190.39;1864817;77;21029;-79
2021/03/14 02:31:45;;;;;;;4.27;2.77;;;;;;;1.20;100.00;100189.55;1850572;77;20933;-78
2021/03/14 02:34:15;;;;;;;3.47;2.67;;;;;;;1.19;100.00;100195.81;1809387;78;20911;-79
2021/03/14 02:36:44;;;;;;;10.40;3.27;;;;;;;1.17;100.00;100192.41;1829407;78;21634;-79
2021/03/14 02:39:15;;;;;;;4.20;2.63;;;;;;;1.17;100.00;100193.29;1829499;77;20993;-78
2021/03/14 02:41:43;;;;;;;2.80;2.17;;;;;;;1.16;100.00;100210.22;1829250;78;21337;-77
2021/03/14 02:44:13;;;;;;;1.83;1.67;;;;;;;1.14;100.00;100202.33;1829328;77;21014;-79
2021/03/14 02:46:42;;;;;;;1.77;1.67;;;;;;;1.14;100.00;100206.32;1829508;77;20915;-78
2021/03/14 02:49:12;;;;;;;3.63;2.70;;;;;;;1.13;100.00;100207.30;1873360;76;21248;-78
2021/03/14 02:51:41;;;;;;;1.30;1.17;;;;;;;1.14;100.00;100204.15;1811266;79;20902;-78
2021/03/14 02:54:10;;;;;;;3.30;1.60;;;;;;;1.14;100.00;100207.66;1802864;78;21029;-78
2021/03/14 02:56:37;;;;;;;5.50;3.20;;;;;;;1.15;100.00;100205.83;1811283;79;20990;-79
2021/03/14 02:59:06;;;;;;;2.83;2.17;;;;;;;1.16;100.00;100207.55;1830108;78;21003;-78
2021/03/14 03:01:33;;;;;;;5.10;2.40;;;;;;;1.16;100.00;100205.38;1811248;79;21479;-78
2021/03/14 03:04:02;;;;;;;3.53;2.43;;;;;;;1.14;100.00;100204.99;1830218;78;20997;-77
2021/03/14 03:06:31;;;;;;;3.50;2.70;;;;;;;1.12;100.00;100203.41;1811338;79;20962;-79
2021/03/14 03:08:59;;;;;;;1.90;1.80;;;;;;;1.09;100.00;100200.95;1830168;78;21005;-78
2021/03/14 03:11:27;;;;;;;1.40;1.37;;;;;;;1.07;100.00;100197.55;1784851;79;20974;-79
2021/03/14 03:13:55;;;;;;;2.53;1.80;;;;;;;1.07;100.00;100200.20;1802932;78;21249;-78
2021/03/14 03:16:24;;;;;;;2.27;1.93;;;;;;;1.04;100.00;100197.26;1784578;79;20963;-79
2021/03/14 03:18:52;;;;;;;3.00;2.37;;;;;;;1.02;100.00;100203.17;1830280;78;20942;-79
2021/03/14 03:21:20;;;;;;;3.67;2.27;;;;;;;1.00;100.00;100201.59;1811316;79;20930;-78
2021/03/14 03:23:48;;;;;;;1.80;1.70;;;;;;;0.99;100.00;100196.72;1776803;78;20985;-78
2021/03/14 03:26:16;;;;;;;2.57;2.00;;;;;;;0.98;100.00;100199.03;1811393;79;21385;-79
2021/03/14 03:28:44;;;;;;;2.33;1.80;;;;;;;0.97;100.00;100187.15;1829822;78;20942;-78
2021/03/14 03:31:12;;;;;;;1.80;1.70;;;;;;;0.95;100.00;100192.09;1810555;79;20915;-79
2021/03/14 03:33:41;;;;;;;5.57;2.73;;;;;;;0.96;100.00;100191.62;1829571;78;20875;-77
2021/03/14 03:36:10;;;;;;;4.30;2.13;;;;;;;0.95;100.00;100186.77;1810568;79;20982;-79
2021/03/14 03:38:38;;;;;;;4.03;2.40;;;;;;;0.96;100.00;100178.32;1829674;78;21627;-78
2021/03/14 03:41:06;;;;;;;5.27;2.83;;;;;;;0.99;100.00;100182.56;1810315;79;21022;-79
2021/03/14 03:43:37;;;;;;;2.37;2.20;;;;;;;1.00;100.00;100178.95;1829700;78;20949;-78
2021/03/14 03:46:08;;;;;;;5.67;2.60;;;;;;;0.99;100.00;100181.23;1810601;79;21400;-78
2021/03/14 03:48:47;;;;;;;3.90;2.67;;;;;;;0.97;100.00;100180.49;1825531;78;21026;-79
2021/03/14 03:51:19;;;;;;;3.10;2.40;;;;;;;0.92;100.00;100184.34;1794302;80;21264;-80
2021/03/14 03:53:47;;;;;;;3.73;2.40;;;;;;;0.90;100.00;100174.73;1826524;78;20985;-78
2021/03/14 03:56:14;;;;;;;1.30;1.20;;;;;;;0.86;100.00;100171.92;1794220;80;20938;-79
2021/03/14 03:58:44;;;;;;;3.40;2.70;;;;;;;0.84;100.00;100165.85;1826534;78;21336;-78
2021/03/14 04:01:12;;;;;;;4.53;2.90;;;;;;;0.81;100.00;100170.05;1794357;80;20898;-78
2021/03/14 04:03:44;;;;;;;3.97;2.37;;;;;;;0.79;100.00;100167.97;1826561;78;21758;-79
2021/03/14 04:06:15;;;;;;;4.77;3.00;;;;;;;0.78;100.00;100166.26;1794135;80;20914;-79
2021/03/14 04:08:44;;;;;;;3.97;2.03;;;;;;;0.77;100.00;100169.41;1826827;78;20933;-79
2021/03/14 04:11:16;;;;;;;1.40;1.37;;;;;;;0.75;100.00;100162.02;1794251;79;20949;-78
2021/03/14 04:13:44;;;;;;;1.35;1.25;;;;;;;0.77;100.00;100164.08;1826645;78;20926;-79
2021/03/14 04:16:14;;;;;;;2.67;1.87;;;;;;;0.76;100.00;100159.70;1777018;80;21692;-78
2021/03/14 04:18:43;;;;;;;1.27;1.20;;;;;;;0.78;100.00;100155.61;1826302;78;20930;-79
2021/03/14 04:21:16;;;;;;;2.97;1.57;;;;;;;0.78;100.00;100160.48;1793927;80;20960;-78
2021/03/14 04:23:47;;;;;;;2.77;2.50;;;;;;;0.78;100.00;100152.49;1826522;78;20937;-79
2021/03/14 04:26:22;;;;;;;4.63;3.30;;;;;;;0.80;100.00;100151.02;1794181;80;20898;-78
2021/03/14 04:28:52;;;;;;;2.50;2.30;;;;;;;0.79;100.00;100156.84;1729124;83;21589;-79
2021/03/14 04:31:20;;;;;;;3.93;2.53;;;;;;;0.80;100.00;100157.23;1729242;83;21037;-79
2021/03/14 04:33:50;;;;;;;4.33;2.60;;;;;;;0.81;100.00;100158.91;1729225;83;21009;-78
2021/03/14 04:36:17;;;;;;;3.23;2.37;;;;;;;0.82;100.00;100164.62;1705308;83;21066;-78
2021/03/14 04:38:45;;;;;;;5.07;2.40;;;;;;;0.83;100.00;100159.66;1729333;83;21004;-78
2021/03/14 04:41:15;;;;;;;6.90;3.30;;;;;;;0.86;100.00;100159.45;1729296;83;21340;-78
2021/03/14 04:43:43;;;;;;;5.53;2.87;;;;;;;0.90;100.00;100166.29;1729133;83;21017;-79
2021/03/14 04:46:14;;;;;;;5.23;3.27;;;;;;;0.94;100.00;100169.59;1729217;83;20950;-78
2021/03/14 04:49:01;;;;;;;4.67;2.77;;;;;;;1.00;100.00;100161.65;1848474;77;26670;-78
2021/03/14 04:51:35;;;;;;;10.47;4.00;;;;;;;0.99;100.00;100159.93;1813721;79;20911;-78
2021/03/14 04:54:03;;;;;;;10.43;4.90;;;;;;;0.99;100.00;100162.59;1751643;82;21674;-79
2021/03/14 04:56:31;;;;;;;7.10;3.90;;;;;;;0.99;100.00;100162.11;1774237;81;20969;-79
2021/03/14 04:58:59;;;;;;;3.93;3.53;;;;;;;1.02;100.00;100160.56;1720963;82;20935;-79
2021/03/14 05:01:27;;;;;;;10.27;4.20;;;;;;;1.04;100.00;100157.31;1782364;80;21006;-78
2021/03/14 05:03:55;;;;;;;7.93;4.33;;;;;;;1.07;100.00;100163.77;1722393;82;20966;-79
2021/03/14 05:06:24;;;;;;;10.87;5.17;;;;;;;1.10;100.00;100164.89;1751406;82;21659;-79
2021/03/14 05:08:52;;;;;;;10.13;3.97;;;;;;;1.13;100.00;100159.36;1722378;82;20935;-78
2021/03/14 05:11:21;;;;;;;11.53;5.50;;;;;;;1.16;100.00;100167.59;1751395;80;20922;-78
2021/03/14 05:13:49;;;;;;;8.20;4.13;;;;;;;1.20;100.00;100167.74;1751785;80;20974;-78
2021/03/14 05:16:18;;;;;;;15.23;5.13;;;;;;;1.23;100.00;100164.03;1744434;78;21016;-78
2021/03/14 05:18:46;;;;;;;5.43;3.20;;;;;;;1.26;100.00;100165.16;1774260;81;21641;-79
2021/03/14 05:21:14;;;;;;;11.90;5.63;;;;;;;1.28;100.00;100176.55;1751417;82;20993;-79
2021/03/14 05:23:42;;;;;;;12.57;5.07;;;;;;;1.30;100.00;100176.80;1774431;81;21057;-78
2021/03/14 05:26:14;;;;;;;12.93;4.60;;;;;;;1.32;100.00;100171.37;1751561;82;20963;-79
2021/03/14 05:28:42;;;;;;;13.70;6.23;;;;;;;1.33;100.00;100171.27;1782593;80;20967;-78
2021/03/14 05:31:29;;;;;;;12.47;5.00;;;;;;;1.35;100.00;100168.49;1751910;79;21887;-79
2021/03/14 05:33:59;;;;;;;8.47;4.60;;;;;;;1.36;100.00;100170.18;1751693;80;21018;-78
2021/03/14 05:36:27;;;;;;;11.03;4.70;;;;;;;1.35;100.00;100168.95;1751678;79;20978;-78
2021/03/14 05:38:55;;;;;;;6.57;3.50;;;;;;;1.34;100.00;100174.77;1751714;80;20982;-78
2021/03/14 05:41:23;;;;;;;9.77;4.60;;;;;;;1.37;100.00;100175.05;1751703;80;21323;-78
2021/03/14 05:43:51;;;;;;;13.90;4.50;;;;;;;1.40;100.00;100177.47;1751452;80;21033;-78
2021/03/14 05:46:22;;;;;;;9.67;4.70;;;;;;;1.43;100.00;100174.11;1751586;79;21014;-78
2021/03/14 05:48:50;;;;;;;13.90;5.67;;;;;;;1.44;100.00;100171.83;1744964;80;20951;-78
2021/03/14 05:51:25;;;;;;;7.87;4.37;;;;;;;1.44;100.00;100167.83;1743722;80;21070;-78
2021/03/14 05:53:54;;;;;;;6.83;4.10;;;;;;;1.45;100.00;100166.02;1813044;79;20986;-79
2021/03/14 05:56:23;;;;;;;8.10;4.30;;;;;;;1.44;100.00;100173.65;1812713;77;21564;-79
2021/03/14 05:58:51;;;;;;;10.43;5.27;;;;;;;1.44;100.00;100182.98;1812706;74;20892;-78
2021/03/14 06:01:22;;;;;;;8.67;3.87;;;;;;;1.45;100.00;100175.34;1743671;80;20895;-78
2021/03/14 06:03:50;;;;;;;10.77;4.67;;;;;;;1.48;100.00;100176.45;1812314;74;20982;-78
2021/03/14 06:06:18;;;;;;;10.90;5.57;;;;;;;1.53;100.00;100168.98;1812421;74;21006;-78
2021/03/14 06:08:45;;;;;;;7.33;3.83;;;;;;;1.60;100.00;100168.08;1781373;79;21628;-79
2021/03/14 06:11:14;;;;;;;9.27;5.10;;;;;;;1.63;100.00;100174.03;1743205;82;20998;-79
2021/03/14 06:13:43;;;;;;;10.47;4.87;;;;;;;1.66;100.00;100164.95;1812340;79;21030;-78
2021/03/14 06:16:11;;;;;;;13.53;4.83;;;;;;;1.69;100.00;100170.07;1756507;79;20970;-78
2021/03/14 06:18:40;;;;;;;10.43;5.13;;;;;;;1.70;100.00;100173.96;1743433;77;20986;-78
2021/03/14 06:21:24;;;;;;;11.33;5.03;;;;;;;1.75;100.00;100178.94;1812164;79;22212;-78
2021/03/14 06:24:01;;;;;;;6.62;3.87;;;;;;;1.79;100.00;100168.45;1811677;79;20998;-79
2021/03/14 06:26:41;;;;;;;11.37;4.07;;;;;;;1.84;100.00;100169.42;1743329;78;20994;-79
2021/03/14 06:29:22;;;;;;;11.20;4.20;;;;;;;1.88;100.00;100170.92;1810026;79;20954;-78
2021/03/14 06:31:59;;;;;;;9.67;4.03;;;;;;;1.89;100.00;100169.95;1751560;77;20918;-79
2021/03/14 06:34:38;;;;;;;9.87;3.63;;;;;;;1.88;100.00;100167.77;1828647;76;21780;-78
2021/03/14 06:37:14;;;;;;;3.97;2.63;;;;;;;1.87;100.00;100165.20;1828928;75;20957;-78
2021/03/14 06:39:44;;;;;;;6.50;3.23;;;;;;;1.88;100.00;100172.26;1748017;80;20986;-78
2021/03/14 06:42:33;;;;;;;5.77;3.20;;;;;;;1.90;100.00;100160.99;1722406;81;20962;-78
2021/03/14 06:45:07;;;;;;;8.23;4.50;;;;;;;1.92;100.00;100167.55;1745558;79;20899;-78
2021/03/14 06:47:48;;;;;;;5.63;3.10;;;;;;;1.96;100.00;100171.69;1722905;82;21372;-78
2021/03/14 06:50:32;;;;;;;8.13;3.70;;;;;;;1.99;100.00;100173.64;1707090;84;21004;-78
2021/03/14 06:53:39;;;;;;;5.53;3.77;;;;;;;2.07;100.00;100173.95;1838679;77;26507;-78
2021/03/14 06:56:08;;;;;;;6.87;4.13;;;;;;;2.08;100.00;100186.30;1721892;81;20951;-79
2021/03/14 06:58:36;;;;;;;15.10;5.37;;;;;;;2.09;100.00;100183.17;1817491;77;21239;-79
2021/03/14 07:01:16;;;;;;;8.73;3.97;;;;;;;2.10;100.00;100182.19;1801794;78;20961;-79
2021/03/14 07:03:50;;;;;;;8.27;3.90;;;;;;;2.14;100.00;100180.98;1800506;77;20989;-79
2021/03/14 07:06:27;;;;;;;7.43;3.60;;;;;;;2.17;100.00;100187.44;1803464;78;20878;-77
2021/03/14 07:09:09;;;;;;;7.57;3.50;;;;;;;2.17;100.00;100175.44;1796306;77;21010;-78
2021/03/14 07:11:43;;;;;;;11.75;5.17;;;;;;;2.15;100.00;100178.70;1772681;79;21630;-78
2021/03/14 07:14:14;;;;;;;;;;;;;;;2.16;100.00;100174.20;1747134;80;21540;-78
2021/03/14 07:16:54;;;;;;;9.27;4.87;;;;;;;2.20;100.00;100177.03;1735676;80;20112;-77
2021/03/14 07:19:30;;;;;;;6.87;3.73;;;;;;;2.21;100.00;100177.39;1808531;78;20965;-79
2021/03/14 07:22:11;;;;;;;9.10;4.27;;;;;;;2.22;100.00;100177.77;1742441;81;21039;-78
2021/03/14 07:24:42;;;;;;;9.43;4.43;;;;;;;2.24;100.00;100180.67;1773063;79;22693;-77
2021/03/14 07:27:21;;;;;;;9.37;4.03;;;;;;;2.28;100.00;100189.30;1716058;83;20973;-79
2021/03/14 07:29:50;;;;;;;7.30;3.90;;;;;;;2.31;100.00;100189.08;1727722;83;20926;-78
2021/03/14 07:32:19;;;;;;;4.73;2.93;;;;;;;2.35;100.00;100186.55;1710880;83;20978;-78
2021/03/14 07:34:47;;;;;;;6.93;3.60;;;;;;;2.41;100.00;100189.27;1719087;83;20977;-78
2021/03/14 07:37:15;;;;;;;7.50;4.17;;;;;;;2.44;100.00;100195.22;1709840;83;21031;-78
2021/03/14 07:39:46;;;;;;;7.40;3.57;;;;;;;2.49;100.00;100200.69;1734617;82;21061;-78
2021/03/14 07:42:19;;;;;;;9.10;4.60;;;;;;;2.52;100.00;100199.13;1738011;82;21030;-79
2021/03/14 07:44:47;;;;;;;9.70;4.30;;;;;;;2.49;100.00;100201.53;1737754;82;20974;-78
2021/03/14 07:47:17;;;;;;;5.97;4.00;;;;;;;2.48;100.00;100202.52;1735736;82;21037;-78
2021/03/14 07:49:51;;;;;;;8.60;3.83;;;;;;;2.49;100.00;100206.03;1738528;81;21218;-79
2021/03/14 07:52:29;;;;;;;4.67;2.97;;;;;;;2.46;100.00;100192.41;1738407;82;21060;-79
2021/03/14 07:55:01;;;;;;;2.93;2.10;;;;;;;2.51;100.00;100189.41;1738493;82;20961;-79
2021/03/14 07:57:29;;;;;;;2.77;2.50;;;;;;;2.59;100.00;100191.87;1739915;82;21360;-81
2021/03/14 07:59:57;;;;;;;6.83;3.47;;;;;;;2.70;100.00;100190.20;1735580;82;21034;-79
2021/03/14 08:02:26;;;;;;;5.03;3.33;;;;;;;2.81;100.00;100194.23;1738311;82;21684;-78
2021/03/14 08:04:58;;;;;;;4.93;3.37;;;;;;;2.92;100.00;100190.27;1729474;82;21036;-79
2021/03/14 08:07:41;;;;;;;6.83;3.67;;;;;;;3.03;100.00;100188.95;1814180;77;26320;-79
2021/03/14 08:10:11;;;;;;;9.23;3.52;;;;;;;3.06;100.00;100192.34;1785948;80;21013;-79
2021/03/14 08:12:40;;;;;;;7.43;3.53;;;;;;;3.10;100.00;100184.45;1785853;79;21071;-79
2021/03/14 08:15:28;;;;;;;4.93;2.57;;;;;;;3.14;100.00;100172.08;1785462;80;21020;-79
2021/03/14 08:18:01;;;;;;;8.77;3.83;;;;;;;3.22;100.00;100173.67;1785719;80;21012;-79
2021/03/14 08:20:46;;;;;;;8.07;3.73;;;;;;;3.33;100.00;100175.96;1785865;80;20981;-78
2021/03/14 08:23:18;;;;;;;11.37;4.07;;;;;;;3.32;100.00;100175.12;1785547;80;21028;-78
2021/03/14 08:25:50;;;;;;;8.00;4.03;;;;;;;3.24;100.00;100177.56;1785695;80;21232;-78
2021/03/14 08:28:33;;;;;;;11.85;4.95;;;;;;;3.22;100.00;100178.14;1785503;80;21060;-78
2021/03/14 08:31:06;;;;;;;9.00;3.70;;;;;;;3.22;100.00;100181.69;1748133;80;21434;-76
2021/03/14 08:33:47;;;;;;;10.20;4.67;;;;;;;3.22;100.00;100173.67;1744466;82;20935;-78
2021/03/14 08:36:41;;;;;;;8.83;4.47;;;;;;;3.26;100.00;100168.94;1851959;76;26378;-81
2021/03/14 08:39:29;;;;;;;8.30;4.07;;;;;;;3.31;100.00;100160.53;1812574;77;21010;-79
2021/03/14 08:42:03;;;;;;;9.83;3.97;;;;;;;3.36;100.00;100164.54;1808945;79;21145;-81
2021/03/14 08:44:45;;;;;;;9.30;4.30;;;;;;;3.47;100.00;100151.69;1744422;81;20959;-81
2021/03/14 08:47:22;;;;;;;9.70;3.70;;;;;;;3.59;100.00;100144.48;1796109;78;20991;-81
2021/03/14 08:50:13;;;;;;;19.20;5.50;;;;;;;3.87;100.00;100140.41;1851579;75;26253;-79
2021/03/14 08:52:48;;;;;;;10.67;4.40;;;;;;;4.08;100.00;100143.66;1808050;77;20986;-79
2021/03/14 08:55:18;;;;;;;14.73;5.13;;;;;;;4.28;100.00;100144.16;1743754;81;21354;-80
2021/03/14 08:57:57;;;;;;;12.57;4.87;;;;;;;4.54;100.00;100151.36;1810904;76;26599;-78
2021/03/14 09:00:25;;;;;;;10.70;4.53;;;;;;;4.71;100.00;100149.06;1772609;80;20915;-79
2021/03/14 09:02:58;;;;;;;10.43;3.80;;;;;;;4.78;100.00;100163.67;1768950;81;21642;-78
2021/03/14 09:05:32;;;;;;;7.23;3.47;;;;;;;4.83;100.00;100146.68;1772045;80;21041;-76
2021/03/14 09:08:02;;;;;;;6.73;4.20;;;;;;;4.92;100.00;100143.70;1769739;81;20946;-76
2021/03/14 09:10:36;;;;;;;12.63;4.90;;;;;;;5.04;100.00;100145.33;1768916;81;20935;-75
2021/03/14 09:13:11;;;;;;;14.27;5.00;;;;;;;5.17;100.00;100140.23;1771656;81;20985;-75
2021/03/14 09:15:49;;;;;;;10.37;4.50;;;;;;;5.20;100.00;100135.96;1745758;82;21657;-77
2021/03/14 09:18:48;;;;;;;16.23;5.78;;;;;;;5.20;100.00;100134.12;1876963;76;27852;-75
2021/03/14 09:21:17;;;;;;;11.80;4.40;;;;;;;5.24;100.00;100147.62;1863969;77;20864;-77
2021/03/14 09:23:47;;;;;;;9.23;4.13;;;;;;;5.31;100.00;100131.36;1859753;77;21336;-76
2021/03/14 09:26:28;;;;;;;12.63;4.67;;;;;;;5.39;100.00;100117.77;1724485;83;20964;-75
2021/03/14 09:29:06;;;;;;;11.87;4.87;;;;;;;5.57;100.00;100124.17;1848512;76;26287;-76
2021/03/14 09:31:42;;;;;;;11.67;4.53;;;;;;;5.58;100.00;100120.52;1818999;79;20909;-78
2021/03/14 09:34:16;;;;;;;9.17;4.67;;;;;;;5.64;100.00;100123.97;1814622;78;21148;-80
2021/03/14 09:36:50;;;;;;;10.80;4.80;;;;;;;5.61;100.00;100117.56;1816299;77;21028;-79
2021/03/14 09:39:25;;;;;;;13.33;4.63;;;;;;;5.55;100.00;100126.14;1813752;77;21077;-80
2021/03/14 09:41:58;;;;;;;10.23;4.37;;;;;;;5.51;100.00;100128.25;1814310;77;20921;-81
2021/03/14 09:44:28;;;;;;;9.97;4.13;;;;;;;5.45;100.00;100131.96;1814995;79;20917;-79
2021/03/14 09:47:03;;;;;;;7.33;4.20;;;;;;;5.36;100.00;100120.71;1818668;79;21886;-79
2021/03/14 09:49:46;;;;;;;6.67;3.50;;;;;;;5.33;100.00;100124.53;1713686;81;21030;-79
2021/03/14 09:52:30;;;;;;;13.22;5.22;;;;;;;5.41;100.00;100096.52;1801402;78;28036;-82
2021/03/14 09:55:00;;;;;;;10.27;4.20;;;;;;;5.42;100.00;100106.75;1780690;80;21035;-78
2021/03/14 09:57:28;;;;;;;10.80;4.50;;;;;;;5.42;100.00;100097.36;1785106;80;21258;-79
2021/03/14 09:59:58;;;;;;;9.07;4.20;;;;;;;5.41;100.00;100100.55;1723160;82;20973;-78
2021/03/14 10:03:03;;;;;;;7.63;3.53;;;;;;;5.46;100.00;100096.12;1814385;77;26335;-79
2021/03/14 10:05:41;;;;;;;11.50;4.33;;;;;;;5.48;100.00;100098.17;1781541;77;20906;-79
2021/03/14 10:08:24;;;;;;;10.53;3.93;;;;;;;5.58;100.00;100101.73;1849613;76;26342;-79
2021/03/14 10:11:07;;;;;;;8.40;3.90;;;;;;;5.60;100.00;100094.89;1819541;78;20895;-79
2021/03/14 10:13:36;;;;;;;7.65;4.03;;;;;;;5.66;100.00;100101.03;1789025;79;21424;-79
2021/03/14 10:16:15;;;;;;;6.73;3.90;;;;;;;5.66;100.00;100095.67;1818845;79;21771;-80
2021/03/14 10:18:50;;;;;;;12.30;4.77;;;;;;;5.69;100.00;100094.91;1838899;77;26388;-78
2021/03/14 10:21:26;;;;;;;9.13;3.87;;;;;;;5.66;100.00;100088.46;1736507;82;20982;-77
2021/03/14 10:24:19;;;;;;;10.10;3.97;;;;;;;5.63;100.00;100086.08;1687251;83;22300;-76
2021/03/14 10:27:04;;;;;;;6.83;3.27;;;;;;;5.66;100.00;100084.44;1810586;77;26363;-79
2021/03/14 10:29:40;;;;;;;4.57;3.00;;;;;;;5.61;100.00;100082.69;1669652;84;21096;-76
2021/03/14 10:32:28;;;;;;;4.80;2.53;;;;;;;5.58;100.00;100089.66;1696566;84;22738;-77
2021/03/14 10:34:59;;;;;;;2.73;2.40;;;;;;;5.56;100.00;100065.29;1697294;84;21688;-78
2021/03/14 10:37:31;;;;;;;4.10;2.47;;;;;;;5.54;100.00;100068.61;1729727;83;20972;-78
2021/03/14 10:40:14;;;;;;;3.10;2.10;;;;;;;5.56;100.00;100069.31;1845574;76;26491;-77
2021/03/14 10:42:50;;;;;;;4.30;2.60;;;;;;;5.48;100.00;100064.14;1758121;80;20945;-77
2021/03/14 10:45:24;;;;;;;6.43;2.83;;;;;;;5.46;100.00;100066.63;1754008;81;22741;-76
2021/03/14 10:48:01;;;;;;;6.27;2.27;;;;;;;5.44;100.00;100062.73;1754621;80;21557;-77
2021/03/14 10:50:35;;;;;;;5.40;3.30;;;;;;;5.49;100.00;100059.66;1757999;81;21100;-77
2021/03/14 10:53:15;;;;;;;3.53;2.43;;;;;;;5.56;100.00;100050.53;1754791;79;21020;-76
2021/03/14 10:55:48;;;;;;;4.60;2.43;;;;;;;5.64;100.00;100048.02;1755565;81;20957;-77
2021/03/14 10:58:19;;;;;;;8.67;4.13;;;;;;;5.68;100.00;100051.64;1758728;81;22314;-77
2021/03/14 11:00:53;;;;;;;4.37;2.73;;;;;;;5.77;100.00;100043.25;1754785;81;20957;-77
2021/03/14 11:03:39;;;;;;;5.60;2.47;;;;;;;5.81;100.00;100033.92;1755637;81;21008;-78
2021/03/14 11:06:21;;;;;;;5.72;2.72;;;;;;;5.83;100.00;100056.59;1754708;81;21044;-78
2021/03/14 11:09:05;;;;;;;5.43;2.80;;;;;;;5.89;100.00;100024.65;1890174;76;26511;-77
2021/03/14 11:11:43;;;;;;;7.00;3.03;;;;;;;5.97;100.00;100029.36;1861035;77;20950;-78
2021/03/14 11:14:38;;;;;;;3.37;2.60;;;;;;;6.11;100.00;100021.85;1748666;81;21210;-78
2021/03/14 11:17:17;;;;;;;5.00;2.70;;;;;;;6.18;100.00;100021.16;1748841;82;21067;-78
2021/03/14 11:19:55;;;;;;;3.73;2.50;;;;;;;6.23;100.00;100010.84;1852283;76;26320;-77
2021/03/14 11:22:24;;;;;;;6.17;2.80;;;;;;;6.20;100.00;100011.62;1782824;80;21476;-77
2021/03/14 11:24:53;;;;;;;6.23;2.90;;;;;;;6.17;100.00;100011.39;1855336;77;21055;-78
2021/03/14 11:27:23;;;;;;;4.27;2.73;;;;;;;6.13;100.00;100003.79;1855200;77;21475;-75
2021/03/14 11:29:52;;;;;;;3.80;3.03;;;;;;;6.10;100.00;99996.02;1855356;77;20931;-77
2021/03/14 11:32:25;;;;;;;3.03;2.30;;;;;;;6.07;100.00;100006.53;1855451;77;21020;-77
2021/03/14 11:34:55;;;;;;;4.57;3.07;;;;;;;6.05;100.00;100000.45;1850077;77;20910;-77
2021/03/14 11:37:38;;;;;;;8.90;3.20;;;;;;;6.05;100.00;99994.59;1850886;77;22436;-78
2021/03/14 11:40:14;;;;;;;5.60;3.13;;;;;;;6.06;100.00;100003.00;1720673;82;20992;-77
2021/03/14 11:42:44;;;;;;;7.97;3.40;;;;;;;6.07;100.00;99991.29;1717348;83;21447;-77
2021/03/14 11:45:25;;;;;;;7.47;3.37;;;;;;;6.12;100.00;99992.69;1851907;76;26545;-78
2021/03/14 11:47:53;;;;;;;4.27;2.97;;;;;;;6.08;100.00;99991.63;1787701;79;21013;-76
2021/03/14 11:50:23;;;;;;;7.07;3.00;;;;;;;6.08;100.00;99985.42;1758516;81;21269;-77